CheckWX is a tool to help pilots better visualize weather data.  It is not intended as a substitute for an official pre-flight weather briefing.

08:47:40 UTC

RJFT TAF
Kumamoto Airport
Kumamoto, Japan
TAF RJFT 180505Z 1806/1912 23006KT 9999 FEW020 BKN030 BECMG 1807/1809 06005KT BECMG 1900/1903 29007KT BECMG 1909/1912 06006KT

Jan-18@
06:00 UTC

Jan-18 @ 06:00 UTC

Jan-18@
07:00 UTC

Jan-18 @ 07:00 UTC

TAF RJFT 180505Z 1806/1912 23006KT 9999 FEW020 BKN030

Expired

Wind
  • 230° at 6 KTS
Cloud Levels
  • Few at 2,000' AGL
  • Broken at 3,000' AGL

Jan-18@
07:00 UTC

Jan-18 @ 07:00 UTC

Jan-19@
00:00 UTC

Jan-19 @ 00:00 UTC

BECMG 1807/1809 06005KT

Becoming

Becoming Conditions expected by Sat, Jan 18, 2020 @ 09:00 UTC

Wind
  • 060° at 5 KTS
Cloud Levels
  • Few at 2,000' AGL
  • Broken at 3,000' AGL

Jan-19@
00:00 UTC

Jan-19 @ 00:00 UTC

Jan-19@
09:00 UTC

Jan-19 @ 09:00 UTC

BECMG 1900/1903 29007KT

Becoming

Becoming Conditions expected by Sun, Jan 19, 2020 @ 03:00 UTC

Wind
  • 290° at 7 KTS
Cloud Levels
  • Few at 2,000' AGL
  • Broken at 3,000' AGL

Jan-19@
09:00 UTC

Jan-19 @ 09:00 UTC

Jan-19@
12:00 UTC

Jan-19 @ 12:00 UTC

BECMG 1909/1912 06006KT

Becoming

Becoming Conditions expected by Sun, Jan 19, 2020 @ 12:00 UTC

Wind
  • 060° at 6 KTS
Cloud Levels
  • Few at 2,000' AGL
  • Broken at 3,000' AGL